San Diego, California
Traffic Map
Current Weather Conditions
San Diego, California
Broken Clouds
Broken Clouds
62°
Feels Like: 62°
Wind Chill: 62° Ceiling: 7500
Heat Index: 62° Visibility: 10mi
Dew Point: 51° Wind: 8mph
Humidity: 67% Direction: 290° (WNW)
Pressure: 30.04in Gusts: 0mph
Raw Report DataKSAN 221351Z 29007KT 10SM FEW020 BKN075 BKN090 17/11 A3004 RMK AO2 RAB13E29 SLP172 P0000 T01670106
Traffic Incident Summary
Active as of:
Severity:
Category:
InformationThere was an issue retrieving the traffic information for this location. Please try a different location or try again shortly.
Advertisements
Track Severe Weather on mobile